Time;durP1;ratioP1;P1;durP2;ratioP2;P2;SDS_P1;SDS_P2;PMS_P1;PMS_P2;Temp;Humidity;BMP_temperature;BMP_pressure;BME280_temperature;BME280_humidity;BME280_pressure;Samples;Min_cycle;Max_cycle;Signal;HPM_P1;HPM_P2
2021/08/01 00:02:15;;;;;;;6.15;4.55;;;15.60;99.90;;;;;;5019203;28;20025;-54
2021/08/01 00:04:41;;;;;;;5.50;4.10;;;15.60;99.90;;;;;;5018933;28;20491;-54
2021/08/01 00:07:07;;;;;;;7.15;4.13;;;15.60;99.90;;;;;;5020338;28;20104;-51
2021/08/01 00:09:33;;;;;;;6.68;5.32;;;15.60;99.90;;;;;;5018788;28;20110;-55
2021/08/01 00:11:59;;;;;;;5.80;4.57;;;15.50;99.90;;;;;;5018091;28;20029;-52
2021/08/01 00:14:25;;;;;;;6.72;4.72;;;15.60;99.90;;;;;;5018672;28;20037;-53
2021/08/01 00:16:50;;;;;;;6.53;4.68;;;15.60;99.90;;;;;;5020187;28;20109;-52
2021/08/01 00:19:16;;;;;;;5.63;4.63;;;15.50;99.90;;;;;;5018928;28;20037;-52
2021/08/01 00:21:41;;;;;;;5.57;5.05;;;15.50;99.90;;;;;;5017562;28;20117;-52
2021/08/01 00:24:07;;;;;;;6.28;5.05;;;15.50;99.90;;;;;;5019305;28;20094;-51
2021/08/01 00:26:32;;;;;;;6.78;5.43;;;15.50;99.90;;;;;;5018609;28;20021;-52
2021/08/01 00:28:58;;;;;;;5.53;5.10;;;15.50;99.90;;;;;;5020352;28;20022;-52
2021/08/01 00:31:24;;;;;;;6.35;5.10;;;15.50;99.90;;;;;;5018741;28;20052;-52
2021/08/01 00:33:49;;;;;;;7.10;5.18;;;15.50;99.90;;;;;;5017850;28;20026;-51
2021/08/01 00:36:15;;;;;;;5.40;4.78;;;15.50;99.90;;;;;;5018653;28;20039;-51
2021/08/01 00:38:40;;;;;;;8.93;5.10;;;15.50;99.90;;;;;;5018348;28;20463;-52
2021/08/01 00:41:06;;;;;;;6.15;5.28;;;15.50;99.90;;;;;;5018871;28;20028;-52
2021/08/01 00:43:32;;;;;;;6.47;4.88;;;15.50;99.90;;;;;;5018198;28;20022;-51
2021/08/01 00:45:58;;;;;;;5.93;4.93;;;15.50;99.90;;;;;;5019606;28;20483;-53
2021/08/01 00:48:26;;;;;;;6.70;5.47;;;15.50;99.90;;;;;;5022592;28;20017;-52
2021/08/01 00:50:52;;;;;;;6.82;5.15;;;15.50;99.90;;;;;;5021253;28;20072;-55
2021/08/01 00:53:18;;;;;;;6.00;4.65;;;15.50;99.90;;;;;;5018234;28;20124;-53
2021/08/01 00:55:44;;;;;;;8.55;5.28;;;15.50;99.90;;;;;;5023810;28;20108;-52
2021/08/01 00:58:09;;;;;;;6.38;5.15;;;15.50;99.90;;;;;;5027834;28;20072;-52
2021/08/01 01:01:01;;;;;;;6.55;5.20;;;15.60;99.90;;;;;;5017858;28;20029;-53
2021/08/01 01:03:31;;;;;;;8.32;4.90;;;15.60;99.90;;;;;;5014928;28;20030;-53
2021/08/01 01:06:01;;;;;;;6.18;5.15;;;15.50;99.90;;;;;;5018039;28;20014;-55
2021/08/01 01:08:38;;;;;;;5.93;5.32;;;15.50;99.90;;;;;;5015265;28;20030;-52
2021/08/01 01:11:06;;;;;;;7.07;5.40;;;15.50;99.90;;;;;;5019055;28;20431;-52
2021/08/01 01:13:35;;;;;;;6.57;5.47;;;15.50;99.90;;;;;;5020344;28;20026;-53
2021/08/01 01:16:01;;;;;;;5.57;4.93;;;15.50;99.90;;;;;;5013414;28;20032;-52
2021/08/01 01:18:43;;;;;;;6.22;5.20;;;15.50;99.90;;;;;;5020431;28;20026;-55
2021/08/01 01:21:58;;;;;;;7.05;5.10;;;15.50;99.90;;;;;;5013224;28;20017;-56
2021/08/01 01:24:31;;;;;;;6.80;4.90;;;15.50;99.90;;;;;;4988736;28;20057;-52
2021/08/01 01:27:20;;;;;;;7.75;5.03;;;15.50;99.90;;;;;;5017223;28;20028;-52
2021/08/01 01:29:51;;;;;;;6.35;5.05;;;15.50;99.90;;;;;;5016597;28;20092;-55
2021/08/01 01:32:54;;;;;;;6.07;5.13;;;15.50;99.90;;;;;;5016649;28;20112;-51
2021/08/01 01:35:20;;;;;;;7.63;4.72;;;15.50;99.90;;;;;;5013575;28;20435;-53
2021/08/01 01:37:49;;;;;;;6.60;4.88;;;15.50;99.90;;;;;;5013725;28;20025;-54
2021/08/01 01:40:19;;;;;;;7.18;5.03;;;15.50;99.90;;;;;;5018813;28;20087;-53
2021/08/01 01:42:47;;;;;;;5.95;5.10;;;15.50;99.90;;;;;;5013394;28;20179;-53
2021/08/01 01:45:18;;;;;;;5.07;4.57;;;15.50;99.90;;;;;;5019649;28;20049;-52
2021/08/01 01:47:47;;;;;;;7.10;4.95;;;15.50;99.90;;;;;;5023309;28;20123;-55
2021/08/01 01:50:16;;;;;;;6.97;4.50;;;15.40;99.90;;;;;;5019859;28;20494;-53
2021/08/01 01:52:44;;;;;;;7.15;4.82;;;15.40;99.90;;;;;;5018347;28;20107;-55
2021/08/01 01:55:10;;;;;;;4.63;4.22;;;15.50;99.90;;;;;;5008600;28;20053;-54
2021/08/01 01:57:37;;;;;;;5.13;4.63;;;15.50;99.90;;;;;;5017968;28;20033;-56
2021/08/01 02:00:03;;;;;;;4.95;4.47;;;15.40;99.90;;;;;;5017438;28;20036;-53
2021/08/01 02:02:28;;;;;;;5.22;4.72;;;15.50;99.90;;;;;;5017726;28;20022;-52
2021/08/01 02:04:54;;;;;;;5.35;4.30;;;15.50;99.90;;;;;;5016504;28;20507;-54
2021/08/01 02:07:20;;;;;;;10.05;4.28;;;15.50;99.90;;;;;;5016339;28;20497;-56
2021/08/01 02:10:10;;;;;;;12.10;5.68;;;15.50;99.90;;;;;;5015957;28;20033;-54
2021/08/01 02:12:42;;;;;;;7.50;4.55;;;15.50;99.90;;;;;;5016196;28;20484;-54
2021/08/01 02:15:13;;;;;;;5.60;5.05;;;15.50;99.90;;;;;;5017454;28;20022;-52
2021/08/01 02:17:57;;;;;;;7.70;5.35;;;15.40;99.90;;;;;;5016137;28;20037;-54
2021/08/01 02:20:44;;;;;;;4.93;4.35;;;15.40;99.90;;;;;;5018196;28;20554;-53
2021/08/01 02:23:32;;;;;;;6.10;4.60;;;15.50;99.90;;;;;;5022670;28;20032;-53
2021/08/01 02:25:59;;;;;;;7.10;4.13;;;15.50;99.90;;;;;;5007108;28;20525;-55
2021/08/01 02:28:27;;;;;;;6.45;4.50;;;15.40;99.90;;;;;;5022892;28;20691;-52
2021/08/01 02:30:55;;;;;;;4.85;4.40;;;15.40;99.90;;;;;;5022729;28;20030;-56
2021/08/01 02:33:26;;;;;;;7.85;4.38;;;15.40;99.90;;;;;;5017248;28;20111;-53
2021/08/01 02:35:56;;;;;;;6.70;4.60;;;15.40;99.90;;;;;;5022644;28;20025;-53
2021/08/01 02:38:23;;;;;;;5.00;3.95;;;15.40;99.90;;;;;;5016768;28;20021;-57
2021/08/01 02:40:52;;;;;;;5.60;4.75;;;15.40;99.90;;;;;;5022931;28;20036;-52
2021/08/01 02:43:19;;;;;;;7.82;4.40;;;15.40;99.90;;;;;;5014950;28;20021;-55
2021/08/01 02:45:46;;;;;;;5.82;4.18;;;15.40;99.90;;;;;;5029601;28;20083;-53
2021/08/01 02:48:14;;;;;;;5.65;4.60;;;15.40;99.90;;;;;;5029386;28;20483;-52
2021/08/01 02:50:45;;;;;;;5.53;4.10;;;15.40;99.90;;;;;;5029515;28;20470;-52
2021/08/01 02:53:13;;;;;;;5.63;4.43;;;15.40;99.90;;;;;;5025889;28;20040;-53
2021/08/01 02:55:43;;;;;;;5.95;4.18;;;15.40;99.90;;;;;;5029612;28;20029;-56
2021/08/01 02:58:09;;;;;;;7.18;4.50;;;15.40;99.90;;;;;;5025174;28;20018;-55
2021/08/01 03:00:36;;;;;;;4.50;4.10;;;15.40;99.90;;;;;;5028834;28;20364;-54
2021/08/01 03:03:05;;;;;;;5.30;4.80;;;15.40;99.90;;;;;;5024652;28;20029;-52
2021/08/01 03:05:31;;;;;;;4.88;4.07;;;15.40;99.90;;;;;;5027488;28;20021;-56
2021/08/01 03:07:56;;;;;;;5.97;4.25;;;15.30;99.90;;;;;;5022409;28;20318;-53
2021/08/01 03:10:22;;;;;;;4.70;4.18;;;15.40;99.90;;;;;;5027053;28;20021;-54
2021/08/01 03:12:49;;;;;;;4.07;3.53;;;15.40;99.90;;;;;;5029087;28;20100;-53
2021/08/01 03:15:15;;;;;;;5.38;3.17;;;15.30;99.90;;;;;;5025232;28;20089;-53
2021/08/01 03:17:41;;;;;;;3.08;2.78;;;15.40;99.90;;;;;;5028213;28;20509;-53
2021/08/01 03:20:07;;;;;;;4.05;3.17;;;15.40;99.90;;;;;;5030443;28;20541;-53
2021/08/01 03:22:33;;;;;;;2.72;2.53;;;15.30;99.90;;;;;;5026708;28;20026;-55
2021/08/01 03:24:59;;;;;;;2.38;2.17;;;15.40;99.90;;;;;;5028933;28;20048;-53
2021/08/01 03:27:25;;;;;;;2.67;2.15;;;15.30;99.90;;;;;;5025922;28;20458;-54
2021/08/01 03:29:51;;;;;;;2.17;1.98;;;15.30;99.90;;;;;;5028099;28;20028;-52
2021/08/01 03:32:21;;;;;;;3.83;2.47;;;15.30;99.90;;;;;;5025489;28;20033;-52
2021/08/01 03:34:48;;;;;;;2.42;2.22;;;15.30;99.90;;;;;;5027271;28;20029;-52
2021/08/01 03:37:14;;;;;;;3.90;2.40;;;15.30;99.90;;;;;;5029534;28;20041;-53
2021/08/01 03:39:40;;;;;;;3.42;2.33;;;15.30;99.90;;;;;;5026443;28;20380;-53
2021/08/01 03:42:05;;;;;;;3.25;2.33;;;15.20;99.90;;;;;;5020713;28;20087;-52
2021/08/01 03:44:31;;;;;;;2.50;2.28;;;15.30;99.90;;;;;;5025757;28;20018;-52
2021/08/01 03:46:56;;;;;;;4.25;2.10;;;15.20;99.90;;;;;;5028240;28;20037;-52
2021/08/01 03:49:22;;;;;;;2.35;2.15;;;15.20;99.90;;;;;;5029683;28;20096;-53
2021/08/01 03:51:48;;;;;;;4.40;2.17;;;15.20;99.90;;;;;;5026932;28;20056;-53
2021/08/01 03:54:13;;;;;;;2.60;2.40;;;15.20;99.90;;;;;;5029209;28;20022;-53
2021/08/01 03:56:43;;;;;;;4.03;2.78;;;15.20;99.90;;;;;;5024373;28;20546;-53
2021/08/01 03:59:09;;;;;;;2.30;2.10;;;15.20;99.90;;;;;;5017685;28;20088;-53
2021/08/01 04:01:36;;;;;;;3.00;2.00;;;15.20;99.90;;;;;;5024287;28;20027;-55
2021/08/01 04:04:03;;;;;;;2.78;2.28;;;15.20;99.90;;;;;;5024707;28;20566;-54
2021/08/01 04:06:29;;;;;;;4.43;2.67;;;15.20;99.90;;;;;;5029637;28;20024;-54
2021/08/01 04:08:54;;;;;;;4.32;2.50;;;15.20;99.90;;;;;;5024957;28;20026;-53
2021/08/01 04:11:20;;;;;;;5.45;2.90;;;15.20;99.90;;;;;;5028442;28;20635;-53
2021/08/01 04:13:45;;;;;;;2.67;2.20;;;15.20;99.90;;;;;;5015760;28;20061;-57
2021/08/01 04:16:11;;;;;;;4.38;2.90;;;15.20;99.90;;;;;;5028403;28;20026;-54
2021/08/01 04:18:36;;;;;;;3.28;2.75;;;15.20;99.90;;;;;;5023300;28;20021;-53
2021/08/01 04:21:12;;;;;;;3.55;2.25;;;15.20;99.90;;;;;;5024956;28;20041;-52
2021/08/01 04:23:38;;;;;;;2.85;2.42;;;15.10;99.90;;;;;;5029382;28;20040;-57
2021/08/01 04:26:05;;;;;;;3.67;3.03;;;15.10;99.90;;;;;;5023296;28;20648;-53
2021/08/01 04:28:31;;;;;;;4.57;2.47;;;15.20;99.90;;;;;;5028905;28;20029;-54
2021/08/01 04:30:57;;;;;;;5.63;3.30;;;15.20;99.90;;;;;;5023243;28;20133;-53
2021/08/01 04:33:23;;;;;;;4.22;2.55;;;15.20;99.90;;;;;;5027339;28;20021;-54
2021/08/01 04:35:48;;;;;;;5.20;2.58;;;15.20;99.90;;;;;;5028728;28;20030;-55
2021/08/01 04:38:14;;;;;;;4.03;2.83;;;15.20;99.90;;;;;;5024315;28;20064;-58
2021/08/01 04:40:40;;;;;;;3.17;2.88;;;15.30;99.90;;;;;;5039296;22;20056;-54
2021/08/01 04:43:05;;;;;;;3.13;2.83;;;15.20;99.90;;;;;;5007849;28;20480;-51
2021/08/01 04:45:31;;;;;;;4.47;2.60;;;15.30;99.90;;;;;;5009083;28;20068;-55
2021/08/01 04:47:57;;;;;;;4.93;3.13;;;15.30;99.90;;;;;;5009257;28;20022;-49
2021/08/01 04:50:22;;;;;;;4.80;3.60;;;15.30;99.90;;;;;;5007480;28;20652;-49
2021/08/01 04:52:52;;;;;;;4.68;3.30;;;15.30;99.90;;;;;;5008719;28;20049;-53
2021/08/01 04:55:19;;;;;;;5.35;2.95;;;15.30;99.90;;;;;;5001845;28;20054;-51
2021/08/01 04:57:44;;;;;;;3.90;3.13;;;15.40;99.90;;;;;;5008560;28;20034;-52
2021/08/01 05:00:10;;;;;;;4.68;3.13;;;15.40;99.90;;;;;;5008580;28;20029;-50
2021/08/01 05:02:36;;;;;;;3.30;3.00;;;15.40;99.90;;;;;;5007354;28;20558;-51
2021/08/01 05:05:03;;;;;;;5.32;3.88;;;15.40;99.90;;;;;;5008187;28;20030;-52
2021/08/01 05:07:29;;;;;;;8.00;4.72;;;15.40;99.90;;;;;;5008310;28;20022;-54
2021/08/01 05:09:55;;;;;;;4.35;3.95;;;15.40;99.90;;;;;;5008729;28;20062;-52
2021/08/01 05:12:20;;;;;;;5.47;4.35;;;15.40;99.90;;;;;;5008892;28;20183;-53
2021/08/01 05:14:46;;;;;;;6.22;4.80;;;15.50;99.90;;;;;;5008247;28;20037;-51
2021/08/01 05:17:12;;;;;;;6.70;5.20;;;15.50;99.90;;;;;;5008900;28;20381;-50
2021/08/01 05:19:39;;;;;;;5.93;5.05;;;15.50;99.90;;;;;;5008266;28;20018;-51
2021/08/01 05:22:05;;;;;;;8.32;5.45;;;15.50;99.90;;;;;;5008821;28;20109;-54
2021/08/01 05:24:31;;;;;;;6.05;5.45;;;15.50;99.90;;;;;;5008243;28;20137;-52
2021/08/01 05:26:56;;;;;;;6.32;5.20;;;15.60;99.90;;;;;;5008707;28;20458;-51
2021/08/01 05:29:22;;;;;;;6.57;5.00;;;15.60;99.90;;;;;;5008623;28;20565;-55
2021/08/01 05:31:48;;;;;;;9.93;6.43;;;15.60;99.90;;;;;;5007925;28;20443;-55
2021/08/01 05:34:13;;;;;;;8.52;6.38;;;15.70;99.90;;;;;;5008474;28;20025;-52
2021/08/01 05:36:39;;;;;;;8.55;6.82;;;15.70;99.90;;;;;;5006688;28;20057;-55
2021/08/01 05:39:05;;;;;;;9.63;6.75;;;15.70;99.90;;;;;;5008290;28;20100;-52
2021/08/01 05:41:31;;;;;;;8.98;6.38;;;15.70;99.90;;;;;;5007923;28;20575;-52
2021/08/01 05:43:56;;;;;;;9.32;6.50;;;15.70;99.90;;;;;;5008093;28;20022;-50
2021/08/01 05:46:22;;;;;;;8.77;7.07;;;15.80;99.90;;;;;;5008127;28;20018;-53
2021/08/01 05:48:48;;;;;;;10.00;6.80;;;15.90;99.90;;;;;;5008361;28;20112;-52
2021/08/01 05:51:14;;;;;;;8.85;5.93;;;15.90;99.90;;;;;;5008249;28;20022;-51
2021/08/01 05:53:39;;;;;;;8.48;6.60;;;16.00;99.90;;;;;;5010408;28;20025;-54
2021/08/01 05:56:12;;;;;;;7.63;6.25;;;16.00;99.90;;;;;;5007869;28;20076;-51
2021/08/01 05:58:39;;;;;;;14.43;7.03;;;16.00;99.90;;;;;;5012111;28;20036;-51
2021/08/01 06:01:06;;;;;;;8.43;6.05;;;16.00;99.90;;;;;;5011791;28;20029;-52
2021/08/01 06:03:32;;;;;;;10.73;7.30;;;16.10;99.90;;;;;;5011056;28;20026;-48
2021/08/01 06:06:13;;;;;;;8.85;7.20;;;16.00;99.90;;;;;;5011447;28;20080;-49
2021/08/01 06:08:43;;;;;;;11.32;7.05;;;16.00;99.90;;;;;;5011784;28;20021;-49
2021/08/01 06:11:10;;;;;;;11.98;7.60;;;16.10;99.90;;;;;;5011518;28;20014;-51
2021/08/01 06:13:36;;;;;;;8.52;6.95;;;16.00;99.90;;;;;;5011995;28;20025;-50
2021/08/01 06:16:02;;;;;;;9.77;7.53;;;16.00;99.90;;;;;;5010054;28;20029;-51
2021/08/01 06:18:28;;;;;;;10.52;6.75;;;16.10;99.90;;;;;;5012168;28;20071;-50
2021/08/01 06:21:06;;;;;;;8.75;7.70;;;16.10;99.90;;;;;;5012231;28;20034;-52
2021/08/01 06:23:33;;;;;;;9.05;6.80;;;16.10;99.90;;;;;;5006454;28;20045;-52
2021/08/01 06:25:59;;;;;;;9.32;7.25;;;16.20;99.90;;;;;;5011279;28;20543;-51
2021/08/01 06:28:25;;;;;;;10.98;6.85;;;16.20;99.90;;;;;;5012282;28;20062;-49
2021/08/01 06:30:50;;;;;;;14.50;7.82;;;16.20;99.90;;;;;;5011615;28;20503;-51
2021/08/01 06:33:16;;;;;;;13.73;6.68;;;16.20;99.90;;;;;;5011508;28;20022;-53
2021/08/01 06:35:41;;;;;;;11.55;7.22;;;16.20;99.90;;;;;;5011285;28;20610;-55
2021/08/01 06:38:07;;;;;;;7.80;7.05;;;16.20;99.90;;;;;;5011237;28;20032;-53
2021/08/01 06:40:32;;;;;;;9.43;6.55;;;16.20;99.90;;;;;;5011414;28;20034;-51
2021/08/01 06:42:58;;;;;;;7.97;6.53;;;16.10;99.90;;;;;;5011631;28;20018;-49
2021/08/01 06:45:24;;;;;;;13.07;7.10;;;16.10;99.90;;;;;;5010830;28;20022;-53
2021/08/01 06:47:49;;;;;;;8.98;6.32;;;16.20;99.90;;;;;;5011361;28;20038;-50
2021/08/01 06:50:15;;;;;;;7.82;6.43;;;16.20;99.90;;;;;;5011629;28;20025;-51
2021/08/01 06:52:40;;;;;;;8.70;6.68;;;16.30;99.90;;;;;;5011572;28;20080;-50
2021/08/01 06:55:07;;;;;;;10.00;6.43;;;16.30;99.90;;;;;;5010978;28;20507;-50
2021/08/01 06:57:32;;;;;;;9.00;6.30;;;16.30;99.90;;;;;;5010975;28;20031;-51
2021/08/01 06:59:58;;;;;;;9.68;7.03;;;16.30;99.90;;;;;;5011189;28;20538;-53
2021/08/01 07:02:23;;;;;;;11.18;6.78;;;16.30;99.90;;;;;;5007577;28;20026;-52
2021/08/01 07:04:49;;;;;;;8.23;6.88;;;16.40;99.90;;;;;;5008778;28;20105;-52
2021/08/01 07:07:14;;;;;;;11.23;7.20;;;16.40;99.90;;;;;;5009293;28;20022;-54
2021/08/01 07:09:40;;;;;;;8.52;6.45;;;16.40;99.90;;;;;;5008984;28;20076;-52
2021/08/01 07:12:09;;;;;;;10.63;7.00;;;16.50;99.90;;;;;;5010553;28;20618;-49
2021/08/01 07:14:35;;;;;;;9.43;6.30;;;16.60;99.90;;;;;;5010105;28;20580;-50
2021/08/01 07:17:01;;;;;;;7.35;6.32;;;16.70;99.90;;;;;;5010756;28;20040;-51
2021/08/01 07:19:27;;;;;;;9.38;6.75;;;16.70;99.90;;;;;;5010627;28;20029;-53
2021/08/01 07:21:53;;;;;;;7.68;6.40;;;16.80;99.90;;;;;;5010414;28;20563;-50
2021/08/01 07:24:19;;;;;;;8.60;6.93;;;16.90;99.90;;;;;;5010721;28;20100;-50
2021/08/01 07:26:47;;;;;;;11.68;6.53;;;16.90;99.90;;;;;;5010453;28;20341;-53
2021/08/01 07:29:16;;;;;;;8.15;6.68;;;16.90;99.90;;;;;;5010269;28;20014;-52
2021/08/01 07:31:41;;;;;;;9.32;7.38;;;17.00;99.90;;;;;;5010059;28;20387;-53
2021/08/01 07:34:07;;;;;;;11.80;7.13;;;17.10;99.90;;;;;;5010039;28;20036;-53
2021/08/01 07:36:32;;;;;;;9.77;6.45;;;17.10;99.90;;;;;;4998821;28;20121;-48
2021/08/01 07:38:58;;;;;;;10.18;6.38;;;17.10;99.90;;;;;;4992602;28;20018;-48
2021/08/01 07:41:23;;;;;;;7.20;6.50;;;17.00;99.90;;;;;;4993347;28;20373;-49
2021/08/01 07:43:51;;;;;;;11.48;7.10;;;16.90;99.90;;;;;;4995446;28;20030;-47
2021/08/01 07:46:19;;;;;;;12.18;7.40;;;16.90;99.90;;;;;;4992279;28;20022;-50
2021/08/01 07:48:46;;;;;;;10.80;6.30;;;16.80;99.90;;;;;;5006720;28;20018;-50
2021/08/01 07:51:11;;;;;;;12.10;5.95;;;16.80;99.90;;;;;;5009265;28;20022;-49
2021/08/01 07:53:37;;;;;;;9.55;6.75;;;16.70;99.90;;;;;;5009302;28;20526;-53
2021/08/01 07:56:03;;;;;;;9.25;6.82;;;16.80;99.90;;;;;;5008563;28;20103;-52
2021/08/01 07:58:32;;;;;;;8.40;5.90;;;16.90;99.90;;;;;;5007939;28;20030;-50
2021/08/01 08:00:57;;;;;;;6.72;6.03;;;17.00;99.90;;;;;;5005089;28;20022;-55
2021/08/01 08:03:23;;;;;;;10.25;6.60;;;17.00;99.90;;;;;;5008518;28;20541;-53
2021/08/01 08:05:49;;;;;;;9.90;7.03;;;17.10;99.90;;;;;;5008964;28;20149;-54
2021/08/01 08:08:15;;;;;;;9.75;6.25;;;17.20;99.90;;;;;;5009924;28;20061;-51
2021/08/01 08:10:40;;;;;;;9.32;6.38;;;17.40;99.90;;;;;;5009587;28;20030;-55
2021/08/01 08:13:06;;;;;;;11.95;6.80;;;17.50;99.90;;;;;;5009341;28;20026;-50
2021/08/01 08:15:32;;;;;;;9.35;6.30;;;17.60;99.90;;;;;;5008325;28;20018;-50
2021/08/01 08:17:57;;;;;;;6.20;5.35;;;17.60;99.90;;;;;;5007023;28;20018;-52
2021/08/01 08:20:23;;;;;;;7.60;5.65;;;17.50;99.90;;;;;;5009819;28;20025;-53
2021/08/01 08:22:48;;;;;;;8.00;6.18;;;17.50;99.90;;;;;;4994070;28;20113;-51
2021/08/01 08:25:15;;;;;;;7.70;6.53;;;17.50;99.90;;;;;;5008859;28;20092;-51
2021/08/01 08:27:40;;;;;;;10.35;5.88;;;17.40;99.90;;;;;;5001906;28;20018;-51
2021/08/01 08:30:07;;;;;;;5.97;3.97;;;17.40;99.90;;;;;;5023511;28;20028;-51
2021/08/01 08:32:33;;;;;;;3.03;2.72;;;17.30;99.90;;;;;;5009389;28;20109;-51
2021/08/01 08:34:59;;;;;;;4.35;3.15;;;17.20;99.90;;;;;;5009030;28;20101;-51
2021/08/01 08:37:25;;;;;;;4.03;3.05;;;17.20;99.90;;;;;;5006411;28;20512;-50
2021/08/01 08:39:51;;;;;;;6.50;4.55;;;17.20;99.90;;;;;;5004772;28;20033;-51
2021/08/01 08:42:16;;;;;;;7.05;3.53;;;17.20;99.90;;;;;;5009309;28;20041;-54
2021/08/01 08:44:43;;;;;;;5.63;4.75;;;17.30;99.90;;;;;;5009065;28;20024;-51
2021/08/01 08:47:09;;;;;;;4.95;4.50;;;17.40;99.90;;;;;;5007598;28;20144;-49
2021/08/01 08:49:37;;;;;;;6.60;4.78;;;17.40;99.90;;;;;;5008822;28;20037;-50
2021/08/01 08:52:06;;;;;;;5.70;4.70;;;17.50;99.90;;;;;;5007584;28;20033;-50
2021/08/01 08:54:38;;;;;;;5.75;4.15;;;17.50;99.90;;;;;;5008856;28;20018;-51
2021/08/01 08:57:16;;;;;;;7.15;5.78;;;17.60;99.90;;;;;;5009028;28;20557;-52
2021/08/01 08:59:41;;;;;;;6.50;5.80;;;17.70;99.90;;;;;;5003250;28;20026;-50
2021/08/01 09:02:12;;;;;;;7.20;5.97;;;17.80;99.90;;;;;;5009007;28;20751;-52
2021/08/01 09:04:37;;;;;;;8.73;6.57;;;18.00;99.90;;;;;;5008481;28;20561;-53
2021/08/01 09:07:03;;;;;;;8.60;6.43;;;18.20;99.90;;;;;;5008808;28;20108;-52
2021/08/01 09:09:28;;;;;;;6.65;5.93;;;18.50;99.90;;;;;;5008532;28;20075;-51
2021/08/01 09:11:54;;;;;;;7.43;6.68;;;18.80;99.90;;;;;;5008785;28;20065;-53
2021/08/01 09:14:21;;;;;;;10.68;6.65;;;19.20;99.90;;;;;;5008326;28;20021;-52
2021/08/01 09:16:51;;;;;;;5.93;4.82;;;19.60;99.90;;;;;;5008480;28;20030;-52
2021/08/01 09:19:27;;;;;;;8.35;5.10;;;19.80;99.90;;;;;;5002891;28;20022;-53
2021/08/01 09:21:54;;;;;;;7.60;4.38;;;19.70;99.90;;;;;;5008865;28;20159;-54
2021/08/01 09:24:20;;;;;;;7.78;5.32;;;19.70;99.90;;;;;;5008494;28;20026;-51
2021/08/01 09:26:53;;;;;;;5.13;4.65;;;19.70;99.90;;;;;;5004270;28;20108;-50
2021/08/01 09:29:19;;;;;;;6.15;4.57;;;19.60;99.90;;;;;;5001574;28;20115;-51
2021/08/01 09:31:45;;;;;;;4.25;3.83;;;19.50;99.90;;;;;;5008041;28;20033;-48
2021/08/01 09:34:29;;;;;;;5.10;3.70;;;19.30;99.90;;;;;;5008551;28;20034;-51
2021/08/01 09:37:03;;;;;;;3.67;3.38;;;19.20;99.90;;;;;;5008518;28;20032;-50
2021/08/01 09:39:43;;;;;;;4.67;3.60;;;18.90;99.90;;;;;;5007192;28;20042;-50
2021/08/01 09:42:10;;;;;;;6.32;4.20;;;18.80;99.90;;;;;;5007773;28;20032;-50
2021/08/01 09:44:40;;;;;;;4.82;4.30;;;18.80;99.90;;;;;;5008049;28;20109;-51
2021/08/01 09:47:06;;;;;;;5.40;4.28;;;18.70;99.90;;;;;;5008347;28;20029;-49
2021/08/01 09:49:32;;;;;;;5.25;4.10;;;18.70;99.90;;;;;;5006869;28;20022;-51
2021/08/01 09:52:03;;;;;;;5.32;4.68;;;18.60;99.90;;;;;;5007897;28;20391;-50
2021/08/01 09:54:49;;;;;;;5.10;4.43;;;18.50;99.90;;;;;;5000468;28;20038;-51
2021/08/01 09:57:21;;;;;;;6.13;4.43;;;18.50;99.90;;;;;;5006587;28;20022;-51
2021/08/01 10:00:06;;;;;;;5.15;4.47;;;18.90;99.90;;;;;;4999134;28;20041;-50
2021/08/01 10:02:36;;;;;;;5.00;3.95;;;19.30;99.90;;;;;;4991474;28;20539;-54
2021/08/01 10:05:15;;;;;;;5.28;3.63;;;19.50;99.90;;;;;;4990733;28;20018;-51
2021/08/01 10:07:45;;;;;;;4.72;4.22;;;19.60;99.90;;;;;;4992046;28;20125;-51
2021/08/01 10:10:24;;;;;;;5.93;4.45;;;19.40;99.90;;;;;;4999693;28;20547;-52
2021/08/01 10:12:52;;;;;;;5.72;4.05;;;19.30;99.90;;;;;;5005263;28;20396;-56
2021/08/01 10:15:18;;;;;;;4.85;4.00;;;19.40;99.90;;;;;;5007739;28;20024;-55
2021/08/01 10:17:44;;;;;;;4.43;3.88;;;19.40;99.90;;;;;;5006239;28;20030;-52
2021/08/01 10:20:10;;;;;;;3.72;3.42;;;19.60;99.90;;;;;;5008205;28;20723;-54
2021/08/01 10:22:38;;;;;;;4.95;3.90;;;19.70;99.90;;;;;;5007860;28;20033;-52
2021/08/01 10:25:08;;;;;;;4.03;3.13;;;19.70;99.90;;;;;;5006032;28;20022;-53
2021/08/01 10:27:39;;;;;;;5.80;3.33;;;19.60;99.90;;;;;;5007805;28;20025;-52
2021/08/01 10:30:06;;;;;;;5.15;3.30;;;19.40;99.90;;;;;;5007313;28;20025;-52
2021/08/01 10:32:36;;;;;;;4.53;3.50;;;19.30;99.90;;;;;;5007967;28;20056;-49
2021/08/01 10:35:07;;;;;;;4.88;4.38;;;19.20;99.90;;;;;;5007794;28;20025;-51
2021/08/01 10:37:56;;;;;;;3.92;3.45;;;19.30;99.90;;;;;;5006542;28;20022;-50
2021/08/01 10:40:24;;;;;;;4.57;3.53;;;19.50;99.90;;;;;;5001031;28;20403;-53
2021/08/01 10:42:53;;;;;;;3.03;2.67;;;19.50;99.90;;;;;;5025714;22;20121;-82
2021/08/01 10:45:20;;;;;;;2.17;1.63;;;19.40;99.90;;;;;;5018449;28;20022;-83
2021/08/01 10:47:48;;;;;;;1.65;1.35;;;18.90;99.90;;;;;;5029605;28;20032;-82
2021/08/01 10:50:17;;;;;;;2.47;1.33;;;18.20;99.90;;;;;;5032197;28;20029;-81
2021/08/01 10:52:43;;;;;;;1.48;1.38;;;17.90;99.90;;;;;;5032921;28;20044;-83
2021/08/01 10:55:21;;;;;;;2.58;1.40;;;17.60;99.90;;;;;;5036201;28;20025;-82
2021/08/01 10:58:10;;;;;;;4.45;1.48;;;17.60;99.90;;;;;;5034372;28;20025;-83
2021/08/01 11:00:54;;;;;;;1.67;1.33;;;17.50;99.90;;;;;;5028610;28;20542;-83
2021/08/01 11:03:20;;;;;;;1.83;1.35;;;17.40;99.90;;;;;;5026434;28;20040;-82
2021/08/01 11:05:46;;;;;;;2.38;1.90;;;17.40;99.90;;;;;;5034115;28;20192;-83
2021/08/01 11:08:12;;;;;;;2.47;1.52;;;17.40;99.90;;;;;;5035941;28;20056;-83
2021/08/01 11:10:38;;;;;;;2.00;1.50;;;17.40;99.90;;;;;;5035556;28;20018;-83
2021/08/01 11:13:29;;;;;;;2.58;1.60;;;17.40;99.90;;;;;;5035061;28;20460;-82
2021/08/01 11:15:55;;;;;;;2.50;1.48;;;17.40;99.90;;;;;;5035169;28;20028;-84
2021/08/01 11:18:45;;;;;;;3.80;2.25;;;17.20;99.90;;;;;;5036174;28;20025;-84
2021/08/01 11:21:12;;;;;;;2.20;2.00;;;17.10;99.90;;;;;;5024059;28;20041;-84
2021/08/01 11:23:47;;;;;;;3.80;2.75;;;17.10;99.90;;;;;;5036286;28;20427;-82
2021/08/01 11:26:14;;;;;;;2.50;1.95;;;17.10;99.90;;;;;;5036515;28;20025;-83
2021/08/01 11:28:41;;;;;;;5.45;2.25;;;17.00;99.90;;;;;;5035388;28;20088;-84
2021/08/01 11:31:18;;;;;;;2.92;2.13;;;17.10;99.90;;;;;;5034139;28;20381;-84
2021/08/01 11:33:47;;;;;;;3.17;1.95;;;17.10;99.90;;;;;;5031195;28;20035;-84
2021/08/01 11:36:13;;;;;;;5.70;2.40;;;17.10;99.90;;;;;;5035574;28;20512;-85
2021/08/01 11:38:48;;;;;;;3.50;2.60;;;17.10;99.90;;;;;;5033489;28;20067;-81
2021/08/01 11:41:29;;;;;;;2.97;2.35;;;17.00;99.90;;;;;;5033502;28;20022;-82
2021/08/01 11:44:08;;;;;;;4.28;2.00;;;17.00;99.90;;;;;;5029954;28;20152;-83
2021/08/01 11:46:59;;;;;;;4.40;2.85;;;17.00;99.90;;;;;;5034028;28;20133;-83
2021/08/01 11:49:31;;;;;;;4.55;2.53;;;17.10;99.90;;;;;;5036030;28;20029;-82
2021/08/01 11:51:59;;;;;;;3.42;2.00;;;17.00;99.90;;;;;;5036422;28;20014;-84
2021/08/01 11:54:30;;;;;;;3.17;2.42;;;16.70;99.90;;;;;;5037690;28;20029;-82
2021/08/01 11:57:11;;;;;;;3.22;2.60;;;16.80;99.90;;;;;;5037613;28;20140;-83
2021/08/01 11:59:38;;;;;;;3.90;2.85;;;16.80;99.90;;;;;;5030168;28;20029;-82
2021/08/01 12:02:09;;;;;;;3.22;2.85;;;16.80;99.90;;;;;;5036257;28;20033;-82
2021/08/01 12:04:34;;;;;;;3.92;2.88;;;16.80;99.90;;;;;;5035718;28;20067;-82
2021/08/01 12:07:00;;;;;;;4.68;2.50;;;16.90;99.90;;;;;;5035682;28;20588;-83
2021/08/01 12:09:28;;;;;;;3.55;3.20;;;16.90;99.90;;;;;;5033772;28;20547;-83
2021/08/01 12:12:03;;;;;;;4.35;2.88;;;16.90;99.90;;;;;;5035662;28;20687;-83
2021/08/01 12:14:31;;;;;;;4.78;2.95;;;17.00;99.90;;;;;;5025166;28;20028;-85
2021/08/01 12:17:06;;;;;;;3.15;2.85;;;17.10;99.90;;;;;;5036749;28;20452;-83
2021/08/01 12:19:45;;;;;;;3.33;2.80;;;17.20;99.90;;;;;;5037094;28;20021;-83
2021/08/01 12:22:22;;;;;;;5.10;2.67;;;17.40;99.90;;;;;;5037892;28;20093;-81
2021/08/01 12:24:55;;;;;;;4.47;2.83;;;17.60;99.90;;;;;;5026616;28;20022;-84
2021/08/01 12:27:28;;;;;;;5.15;2.80;;;17.80;99.90;;;;;;5053829;28;20022;-81
2021/08/01 12:30:01;;;;;;;4.22;2.35;;;17.90;99.90;;;;;;5030767;28;20029;-82
2021/08/01 12:32:47;;;;;;;3.13;2.17;;;17.90;99.90;;;;;;5033269;28;20018;-82
2021/08/01 12:35:19;;;;;;;3.75;2.20;;;17.90;99.90;;;;;;5027076;28;20025;-82
2021/08/01 12:37:47;;;;;;;3.35;2.47;;;18.00;99.90;;;;;;5025518;28;20037;-81
2021/08/01 12:40:35;;;;;;;3.78;1.98;;;18.00;99.90;;;;;;5040393;28;20084;-80
2021/08/01 12:43:12;;;;;;;2.45;2.20;;;18.00;99.90;;;;;;5030519;28;20045;-82
2021/08/01 12:45:43;;;;;;;2.00;1.73;;;18.10;99.90;;;;;;5029594;28;20013;-83
2021/08/01 12:48:24;;;;;;;3.60;2.70;;;18.00;99.90;;;;;;5034908;28;20029;-82
2021/08/01 12:50:52;;;;;;;2.13;1.98;;;18.00;99.90;;;;;;5030296;28;20099;-83
2021/08/01 12:53:23;;;;;;;3.42;2.00;;;17.90;99.90;;;;;;5022647;28;20018;-82
2021/08/01 12:55:59;;;;;;;3.35;2.28;;;17.80;99.90;;;;;;5032163;28;20025;-83